createdAt,value
2022-07-29T00:00:15.756Z,38.33
2022-07-29T00:02:43.025Z,38.30
2022-07-29T00:05:11.024Z,42.60
2022-07-29T00:07:38.298Z,42.05
2022-07-29T00:10:06.193Z,43.08
2022-07-29T00:12:33.562Z,41.47
2022-07-29T00:15:00.854Z,40.95
2022-07-29T00:17:28.153Z,38.55
2022-07-29T00:19:55.642Z,38.63
2022-07-29T00:22:22.910Z,41.47
2022-07-29T00:24:50.383Z,41.00
2022-07-29T00:27:18.698Z,38.53
2022-07-29T00:29:46.410Z,35.83
2022-07-29T00:32:13.767Z,39.97
2022-07-29T00:35:00.282Z,42.17
2022-07-29T00:37:28.042Z,40.58
2022-07-29T00:39:55.510Z,38.72
2022-07-29T00:42:23.303Z,35.67
2022-07-29T00:44:51.200Z,40.08
2022-07-29T00:47:18.844Z,42.10
2022-07-29T00:49:46.149Z,42.78
2022-07-29T00:52:16.839Z,40.80
2022-07-29T00:54:45.109Z,39.40
2022-07-29T00:57:13.193Z,60.85
2022-07-29T00:59:40.894Z,47.13
2022-07-29T01:02:08.413Z,37.03
2022-07-29T01:04:35.767Z,44.25
2022-07-29T01:07:04.645Z,46.15
2022-07-29T01:09:46.222Z,46.05
2022-07-29T01:12:25.580Z,46.03
2022-07-29T01:14:54.601Z,40.53
2022-07-29T01:17:30.546Z,40.63
2022-07-29T01:20:07.557Z,46.45
2022-07-29T01:22:44.210Z,46.78
2022-07-29T01:25:31.306Z,43.67
2022-07-29T01:28:24.816Z,39.83
2022-07-29T01:30:55.868Z,53.28
2022-07-29T01:33:45.452Z,48.42
2022-07-29T01:36:24.573Z,50.35
2022-07-29T01:39:08.677Z,45.70
2022-07-29T01:41:38.414Z,47.15
2022-07-29T01:44:18.806Z,55.25
2022-07-29T01:49:38.203Z,34.05
2022-07-29T01:52:12.321Z,45.75
2022-07-29T01:54:58.602Z,49.92
2022-07-29T01:57:31.954Z,47.75
2022-07-29T02:00:01.945Z,50.70
2022-07-29T02:02:42.843Z,49.25
2022-07-29T02:05:13.726Z,50.00
2022-07-29T02:07:43.321Z,53.50
2022-07-29T02:10:14.347Z,52.05
2022-07-29T02:12:43.573Z,46.60
2022-07-29T02:15:19.564Z,51.33
2022-07-29T02:17:52.863Z,65.72
2022-07-29T02:20:20.901Z,65.45
2022-07-29T02:22:50.860Z,48.42
2022-07-29T02:25:19.877Z,53.88
2022-07-29T02:27:50.249Z,55.17
2022-07-29T02:30:18.685Z,58.85
2022-07-29T02:32:47.770Z,64.53
2022-07-29T02:35:17.174Z,75.88
2022-07-29T02:38:06.673Z,50.25
2022-07-29T02:40:38.852Z,44.88
2022-07-29T02:43:08.660Z,49.85
2022-07-29T02:45:35.958Z,53.23
2022-07-29T02:48:11.144Z,78.05
2022-07-29T02:50:51.124Z,73.32
2022-07-29T02:53:21.265Z,58.60
2022-07-29T02:55:57.210Z,58.58
2022-07-29T02:58:33.664Z,51.35
2022-07-29T03:01:21.523Z,51.50
2022-07-29T03:03:52.966Z,60.38
2022-07-29T03:06:37.476Z,64.20
2022-07-29T03:09:13.609Z,59.47
2022-07-29T03:11:49.606Z,65.88
2022-07-29T03:14:21.999Z,64.25
2022-07-29T03:16:50.351Z,63.40
2022-07-29T03:19:21.454Z,59.70
2022-07-29T03:21:48.921Z,62.88
2022-07-29T03:24:45.793Z,71.90
2022-07-29T03:27:14.768Z,56.03
2022-07-29T03:29:42.022Z,62.47
2022-07-29T03:32:17.157Z,63.55
2022-07-29T03:34:51.229Z,70.30
2022-07-29T03:37:18.434Z,63.95
2022-07-29T03:39:46.932Z,67.75
2022-07-29T03:42:16.523Z,57.72
2022-07-29T03:44:48.785Z,63.20
2022-07-29T03:47:18.819Z,62.85
2022-07-29T03:49:50.820Z,59.70
2022-07-29T03:52:18.345Z,54.03
2022-07-29T03:54:45.877Z,68.63
2022-07-29T03:57:15.916Z,59.50
2022-07-29T03:59:44.327Z,73.32
2022-07-29T04:02:14.735Z,51.08
2022-07-29T04:04:42.812Z,68.88
2022-07-29T04:07:14.053Z,59.80
2022-07-29T04:09:41.432Z,69.10
2022-07-29T04:12:08.842Z,71.95
2022-07-29T04:14:36.155Z,70.05
2022-07-29T04:17:04.458Z,68.50
2022-07-29T04:19:32.724Z,59.20
2022-07-29T04:22:00.875Z,67.65
2022-07-29T04:24:28.169Z,69.25
2022-07-29T04:26:55.132Z,72.55
2022-07-29T04:29:22.235Z,60.50
2022-07-29T04:31:49.254Z,73.95
2022-07-29T04:34:16.642Z,59.83
2022-07-29T04:36:43.871Z,68.43
2022-07-29T04:39:11.352Z,72.18
2022-07-29T04:41:38.389Z,67.53
2022-07-29T04:44:07.100Z,58.85
2022-07-29T04:46:35.114Z,70.50
2022-07-29T04:49:03.454Z,56.05
2022-07-29T04:51:30.511Z,70.57
2022-07-29T04:53:57.762Z,69.80
2022-07-29T04:56:25.021Z,55.50
2022-07-29T04:58:53.287Z,67.57
2022-07-29T05:01:20.808Z,74.35
2022-07-29T05:03:47.920Z,69.80
2022-07-29T05:06:15.165Z,58.67
2022-07-29T05:08:42.297Z,66.85
2022-07-29T05:11:11.334Z,61.53
2022-07-29T05:13:45.172Z,64.15
2022-07-29T05:16:14.197Z,56.60
2022-07-29T05:18:41.510Z,63.60
2022-07-29T05:21:08.585Z,67.18
2022-07-29T05:23:35.527Z,59.92
2022-07-29T05:26:02.686Z,60.70
2022-07-29T05:28:35.819Z,70.43
2022-07-29T05:31:02.935Z,77.93
2022-07-29T05:33:35.464Z,72.72
2022-07-29T05:36:08.337Z,74.28
2022-07-29T05:38:37.042Z,80.13
2022-07-29T05:41:05.221Z,65.82
2022-07-29T05:43:32.359Z,80.93
2022-07-29T05:45:59.911Z,71.82
2022-07-29T05:48:27.071Z,73.93
2022-07-29T05:50:54.254Z,69.60
2022-07-29T05:53:21.592Z,70.32
2022-07-29T05:55:49.562Z,75.70
2022-07-29T05:58:17.150Z,77.53
2022-07-29T06:00:44.554Z,76.50
2022-07-29T06:03:11.740Z,84.15
2022-07-29T06:05:38.860Z,75.10
2022-07-29T06:08:09.538Z,84.18
2022-07-29T06:13:04.000Z,60.47
2022-07-29T06:15:31.526Z,76.20
2022-07-29T06:17:59.207Z,69.65
2022-07-29T06:20:31.139Z,85.53
2022-07-29T06:22:58.776Z,76.57
2022-07-29T06:25:25.735Z,72.40
2022-07-29T06:27:53.267Z,82.82
2022-07-29T06:30:20.349Z,80.35
2022-07-29T06:32:48.066Z,76.30
2022-07-29T06:35:38.643Z,80.32
2022-07-29T06:38:14.888Z,76.95
2022-07-29T06:43:50.102Z,63.50
2022-07-29T06:46:19.703Z,73.07
2022-07-29T06:48:46.980Z,82.47
2022-07-29T06:51:14.325Z,75.63
2022-07-29T06:53:59.501Z,84.78
2022-07-29T06:56:28.997Z,67.88
2022-07-29T06:58:58.070Z,80.88
2022-07-29T07:01:25.123Z,96.15
2022-07-29T07:03:52.303Z,88.75
2022-07-29T07:06:19.593Z,73.65
2022-07-29T07:08:46.764Z,65.93
2022-07-29T07:11:13.730Z,59.85
2022-07-29T07:13:40.804Z,64.15
2022-07-29T07:16:07.796Z,63.15
2022-07-29T07:18:35.771Z,68.18
2022-07-29T07:21:02.920Z,66.03
2022-07-29T07:23:29.854Z,61.65
2022-07-29T07:25:56.793Z,61.67
2022-07-29T07:28:25.029Z,56.75
2022-07-29T07:30:53.029Z,58.38
2022-07-29T07:33:20.575Z,56.45
2022-07-29T07:35:48.183Z,53.92
2022-07-29T07:38:15.371Z,50.83
2022-07-29T07:40:42.654Z,47.45
2022-07-29T07:43:09.740Z,47.13
2022-07-29T07:45:38.315Z,43.33
2022-07-29T07:48:06.024Z,40.38
2022-07-29T07:50:33.127Z,40.08
2022-07-29T07:53:00.527Z,36.40
2022-07-29T07:55:27.679Z,40.15
2022-07-29T07:57:55.991Z,29.50
2022-07-29T08:00:23.939Z,60.00
2022-07-29T08:02:51.541Z,39.85
2022-07-29T08:05:19.570Z,56.33
2022-07-29T08:07:47.729Z,65.25
2022-07-29T08:10:39.891Z,41.17
2022-07-29T08:13:08.458Z,54.78
2022-07-29T08:15:35.940Z,44.20
2022-07-29T08:18:08.504Z,27.85
2022-07-29T08:20:38.947Z,32.38
2022-07-29T08:23:09.560Z,52.80
2022-07-29T08:25:38.521Z,55.63
2022-07-29T08:28:07.591Z,25.25
2022-07-29T08:30:35.301Z,33.47
2022-07-29T08:33:02.497Z,40.53
2022-07-29T08:35:34.771Z,29.38
2022-07-29T08:38:04.406Z,36.75
2022-07-29T08:40:32.473Z,33.95
2022-07-29T08:43:06.558Z,24.40
2022-07-29T08:45:48.913Z,20.90
2022-07-29T08:48:18.645Z,24.00
2022-07-29T08:50:47.535Z,29.87
2022-07-29T08:53:17.507Z,13.88
2022-07-29T08:55:49.266Z,10.98
2022-07-29T08:58:17.788Z,17.38
2022-07-29T09:00:53.138Z,15.90
2022-07-29T09:03:25.252Z,9.07
2022-07-29T09:05:53.138Z,15.55
2022-07-29T09:08:21.107Z,10.88
2022-07-29T09:10:48.658Z,20.35
2022-07-29T09:13:15.753Z,18.05
2022-07-29T09:15:42.807Z,19.15
2022-07-29T09:18:26.752Z,14.77
2022-07-29T09:21:15.333Z,15.73
2022-07-29T09:23:43.842Z,6.95
2022-07-29T09:26:10.818Z,10.40
2022-07-29T09:28:43.290Z,8.80
2022-07-29T09:31:10.454Z,11.05
2022-07-29T09:33:41.443Z,9.20
2022-07-29T09:36:10.332Z,9.57
2022-07-29T09:38:38.377Z,21.23
2022-07-29T09:41:06.856Z,11.93
2022-07-29T09:43:34.966Z,10.75
2022-07-29T09:46:20.356Z,13.50
2022-07-29T09:49:14.056Z,14.32
2022-07-29T09:51:42.309Z,17.13
2022-07-29T09:54:28.953Z,16.08
2022-07-29T09:56:56.793Z,11.60
2022-07-29T09:59:27.394Z,11.23
2022-07-29T10:04:22.520Z,9.27
2022-07-29T10:07:04.740Z,11.05
2022-07-29T10:09:34.771Z,12.10
2022-07-29T10:12:14.599Z,17.00
2022-07-29T10:14:43.052Z,17.30
2022-07-29T10:17:11.661Z,16.10
2022-07-29T10:19:39.692Z,24.00
2022-07-29T10:22:09.345Z,21.48
2022-07-29T10:24:38.494Z,26.85
2022-07-29T10:27:07.836Z,25.02
2022-07-29T10:29:35.146Z,24.15
2022-07-29T10:32:20.800Z,25.83
2022-07-29T10:35:08.602Z,25.08
2022-07-29T10:37:56.914Z,30.48
2022-07-29T10:41:04.131Z,28.80
2022-07-29T10:43:39.137Z,29.55
2022-07-29T10:46:11.453Z,35.53
2022-07-29T10:49:10.512Z,33.13
2022-07-29T10:51:51.622Z,34.13
2022-07-29T10:54:52.480Z,32.47
2022-07-29T10:57:53.882Z,29.80
2022-07-29T11:00:16.892Z,35.53
2022-07-29T11:02:50.160Z,38.80
2022-07-29T11:05:22.117Z,34.60
2022-07-29T11:08:20.032Z,35.75
2022-07-29T11:10:49.665Z,36.92
2022-07-29T11:13:44.644Z,32.88
2022-07-29T11:16:16.189Z,29.33
2022-07-29T11:19:13.369Z,35.03
2022-07-29T11:21:55.546Z,33.15
2022-07-29T11:24:28.956Z,31.95
2022-07-29T11:27:14.434Z,34.08
2022-07-29T11:30:03.317Z,30.08
2022-07-29T11:32:39.238Z,28.88
2022-07-29T11:35:37.111Z,29.13
2022-07-29T11:38:27.667Z,29.90
2022-07-29T11:41:36.868Z,25.73
2022-07-29T11:44:04.512Z,31.80
2022-07-29T11:49:48.172Z,104.43
2022-07-29T11:52:15.459Z,176.48
2022-07-29T11:57:36.219Z,572.55
2022-07-29T12:00:12.633Z,693.75
2022-07-29T12:05:37.339Z,818.28
2022-07-29T12:07:03.237Z,398.17
2022-07-29T12:07:03.568Z,769.60
2022-07-29T12:08:12.582Z,846.05
2022-07-29T12:10:42.644Z,864.97
2022-07-29T12:13:11.274Z,871.95
2022-07-29T12:15:47.154Z,886.27
2022-07-29T12:18:24.267Z,895.38
2022-07-29T12:21:04.661Z,906.47
2022-07-29T12:23:34.986Z,893.33
2022-07-29T12:26:10.848Z,902.25
2022-07-29T12:28:39.830Z,916.38
2022-07-29T12:31:13.848Z,910.53
2022-07-29T12:33:41.212Z,881.00
2022-07-29T12:36:14.144Z,860.10
2022-07-29T12:38:44.422Z,845.10
2022-07-29T12:41:12.033Z,798.22
2022-07-29T12:43:53.664Z,741.03
2022-07-29T12:46:20.799Z,692.33
2022-07-29T12:48:55.571Z,658.60
2022-07-29T12:51:37.607Z,684.67
2022-07-29T12:54:09.524Z,723.38
2022-07-29T12:56:44.960Z,768.15
2022-07-29T12:59:32.515Z,794.80
2022-07-29T13:02:01.065Z,883.33
2022-07-29T13:04:30.496Z,903.03
2022-07-29T13:07:55.627Z,901.85
2022-07-29T13:10:13.793Z,892.58
2022-07-29T13:12:41.966Z,835.85
2022-07-29T13:15:16.135Z,860.15
2022-07-29T13:17:44.469Z,871.88
2022-07-29T13:20:15.215Z,891.00
2022-07-29T13:22:43.365Z,871.38
2022-07-29T13:25:10.912Z,870.00
2022-07-29T13:27:40.389Z,850.55
2022-07-29T13:30:10.368Z,798.83
2022-07-29T13:32:38.601Z,710.90
2022-07-29T13:35:08.406Z,699.50
2022-07-29T13:37:39.167Z,741.33
2022-07-29T13:40:09.498Z,695.33
2022-07-29T13:45:05.479Z,650.63
2022-07-29T13:47:33.394Z,763.60
2022-07-29T13:50:06.757Z,822.90
2022-07-29T13:52:34.589Z,818.33
2022-07-29T13:55:01.916Z,783.28
2022-07-29T13:57:29.611Z,808.97
2022-07-29T13:59:57.291Z,795.20
2022-07-29T14:02:25.960Z,828.88
2022-07-29T14:04:55.137Z,708.40
2022-07-29T14:07:22.981Z,688.20
2022-07-29T14:09:50.009Z,721.25
2022-07-29T14:12:16.960Z,711.80
2022-07-29T14:14:45.215Z,743.70
2022-07-29T14:17:14.970Z,761.78
2022-07-29T14:19:42.097Z,715.40
2022-07-29T14:22:09.899Z,676.78
2022-07-29T14:24:38.291Z,626.60
2022-07-29T14:27:09.453Z,728.28
2022-07-29T14:29:38.469Z,584.30
2022-07-29T14:32:11.412Z,683.58
2022-07-29T14:34:39.616Z,708.17
2022-07-29T14:37:07.247Z,592.30
2022-07-29T14:39:42.621Z,539.75
2022-07-29T14:42:12.666Z,543.42
2022-07-29T14:47:08.493Z,347.52
2022-07-29T14:49:36.406Z,444.63
2022-07-29T14:52:04.523Z,334.90
2022-07-29T14:54:31.481Z,436.55
2022-07-29T14:56:58.824Z,375.98
2022-07-29T14:59:27.412Z,389.40
2022-07-29T15:01:55.551Z,284.08
2022-07-29T15:04:22.742Z,319.27
2022-07-29T15:06:49.884Z,313.58
2022-07-29T15:09:16.977Z,321.92
2022-07-29T15:11:43.962Z,240.20
2022-07-29T15:14:11.100Z,185.15
2022-07-29T15:16:39.622Z,233.82
2022-07-29T15:19:10.779Z,164.45
2022-07-29T15:21:41.651Z,157.00
2022-07-29T15:24:18.786Z,161.65
2022-07-29T15:26:47.384Z,160.27
2022-07-29T15:29:17.510Z,181.43
2022-07-29T15:31:44.836Z,243.10
2022-07-29T15:34:11.867Z,179.63
2022-07-29T15:36:54.421Z,180.93
2022-07-29T15:39:23.030Z,186.45
2022-07-29T15:41:50.985Z,165.10
2022-07-29T15:44:19.441Z,163.30
2022-07-29T15:47:04.046Z,162.40
2022-07-29T15:49:46.363Z,115.22
2022-07-29T15:52:25.087Z,114.70
2022-07-29T15:54:55.399Z,149.38
2022-07-29T15:57:23.303Z,165.02
2022-07-29T15:59:50.831Z,93.15
2022-07-29T16:02:18.083Z,164.80
2022-07-29T16:04:45.162Z,135.38
2022-07-29T16:07:12.407Z,182.27
2022-07-29T16:09:41.894Z,173.35
2022-07-29T16:12:15.470Z,116.03
2022-07-29T16:14:44.408Z,116.20
2022-07-29T16:17:14.734Z,140.18
2022-07-29T16:19:54.354Z,158.18
2022-07-29T16:22:21.861Z,118.77
2022-07-29T16:24:49.119Z,128.32
2022-07-29T16:27:16.802Z,135.63
2022-07-29T16:29:44.308Z,126.60
2022-07-29T16:32:11.417Z,109.57
2022-07-29T16:34:38.480Z,116.28
2022-07-29T16:37:05.883Z,110.03
2022-07-29T16:39:33.716Z,89.38
2022-07-29T16:42:03.965Z,106.22
2022-07-29T16:44:32.539Z,114.55
2022-07-29T16:47:00.012Z,125.78
2022-07-29T16:49:27.976Z,110.40
2022-07-29T16:51:55.158Z,103.18
2022-07-29T16:54:22.203Z,85.93
2022-07-29T16:56:49.246Z,66.00
2022-07-29T16:59:16.410Z,63.95
2022-07-29T17:01:43.456Z,78.65
2022-07-29T17:04:11.991Z,81.80
2022-07-29T17:06:40.691Z,70.55
2022-07-29T17:09:09.586Z,60.65
2022-07-29T17:11:53.448Z,73.13
2022-07-29T17:14:29.580Z,58.33
2022-07-29T17:17:02.333Z,58.63
2022-07-29T17:19:36.466Z,81.05
2022-07-29T17:22:18.687Z,67.07
2022-07-29T17:24:47.447Z,66.90
2022-07-29T17:27:14.686Z,55.67
2022-07-29T17:29:42.324Z,52.05
2022-07-29T17:32:10.657Z,52.25
2022-07-29T17:34:39.711Z,58.22
2022-07-29T17:37:09.460Z,45.65
2022-07-29T17:39:40.615Z,44.30
2022-07-29T17:42:12.684Z,55.28
2022-07-29T17:44:40.549Z,49.83
2022-07-29T17:47:15.544Z,50.40
2022-07-29T17:49:43.709Z,45.63
2022-07-29T17:52:10.866Z,48.50
2022-07-29T17:54:37.913Z,50.80
2022-07-29T17:57:04.858Z,74.88
2022-07-29T17:59:32.977Z,55.72
2022-07-29T18:02:00.106Z,59.33
2022-07-29T18:04:28.649Z,53.85
2022-07-29T18:06:56.051Z,64.40
2022-07-29T18:09:23.432Z,52.28
2022-07-29T18:11:51.729Z,57.55
2022-07-29T18:14:19.285Z,50.63
2022-07-29T18:16:46.416Z,47.35
2022-07-29T18:19:13.941Z,40.45
2022-07-29T18:21:51.992Z,52.03
2022-07-29T18:24:27.542Z,36.97
2022-07-29T18:26:54.752Z,46.60
2022-07-29T18:29:21.967Z,40.20
2022-07-29T18:31:49.416Z,42.67
2022-07-29T18:34:17.121Z,50.00
2022-07-29T18:36:45.790Z,42.15
2022-07-29T18:39:20.788Z,38.20
2022-07-29T18:41:51.285Z,38.00
2022-07-29T18:44:21.956Z,34.00
2022-07-29T18:46:51.137Z,31.65
2022-07-29T18:49:18.641Z,32.03
2022-07-29T18:51:45.862Z,32.17
2022-07-29T18:54:12.856Z,29.50
2022-07-29T18:56:39.954Z,31.15
2022-07-29T18:59:08.280Z,32.25
2022-07-29T19:01:35.451Z,31.05
2022-07-29T19:04:02.600Z,45.58
2022-07-29T19:06:29.864Z,42.38
2022-07-29T19:08:56.984Z,42.97
2022-07-29T19:11:23.920Z,37.72
2022-07-29T19:13:51.061Z,38.17
2022-07-29T19:16:18.599Z,36.33
2022-07-29T19:18:47.398Z,33.17
2022-07-29T19:21:14.654Z,36.75
2022-07-29T19:24:05.941Z,33.63
2022-07-29T19:26:29.687Z,35.33
2022-07-29T19:28:57.858Z,65.57
2022-07-29T19:31:25.276Z,84.10
2022-07-29T19:33:52.548Z,55.40
2022-07-29T19:36:19.568Z,89.15
2022-07-29T19:38:46.768Z,47.67
2022-07-29T19:41:13.872Z,39.00
2022-07-29T19:43:51.529Z,40.03
2022-07-29T19:46:24.082Z,43.97
2022-07-29T19:48:52.991Z,41.53
2022-07-29T19:51:20.179Z,38.45
2022-07-29T19:53:47.226Z,41.88
2022-07-29T19:56:14.347Z,42.15
2022-07-29T19:58:42.276Z,38.58
2022-07-29T20:01:11.399Z,33.30
2022-07-29T20:03:40.231Z,39.08
2022-07-29T20:06:07.806Z,36.65
2022-07-29T20:08:34.958Z,37.10
2022-07-29T20:11:02.917Z,32.88
2022-07-29T20:13:31.807Z,29.42
2022-07-29T20:15:59.824Z,44.35
2022-07-29T20:18:27.365Z,37.20
2022-07-29T20:20:56.213Z,40.47
2022-07-29T20:23:23.482Z,34.08
2022-07-29T20:25:50.469Z,33.45
2022-07-29T20:28:17.669Z,45.50
2022-07-29T20:30:44.728Z,40.15
2022-07-29T20:33:15.791Z,39.85
2022-07-29T20:35:43.741Z,37.20
2022-07-29T20:38:12.991Z,44.88
2022-07-29T20:40:43.357Z,50.75
2022-07-29T20:43:10.370Z,50.83
2022-07-29T20:45:38.012Z,53.30
2022-07-29T20:48:06.002Z,55.05
2022-07-29T20:53:02.347Z,32.00
2022-07-29T20:55:29.465Z,45.42
2022-07-29T20:57:56.442Z,61.10
2022-07-29T21:00:23.532Z,70.35
2022-07-29T21:02:50.637Z,64.95
2022-07-29T21:05:17.700Z,61.65
2022-07-29T21:07:44.719Z,79.53
2022-07-29T21:10:12.333Z,70.18
2022-07-29T21:12:39.418Z,61.05
2022-07-29T21:15:07.149Z,74.53
2022-07-29T21:17:36.191Z,82.70
2022-07-29T21:20:06.718Z,71.90
2022-07-29T21:25:00.967Z,68.20
2022-07-29T21:27:46.765Z,64.72
2022-07-29T21:30:14.097Z,67.97
2022-07-29T21:32:41.319Z,74.18
2022-07-29T21:35:14.592Z,81.93
2022-07-29T21:37:54.673Z,101.35
2022-07-29T21:40:21.828Z,88.38
2022-07-29T21:42:48.887Z,90.22
2022-07-29T21:45:17.062Z,80.22
2022-07-29T21:47:44.234Z,98.55
2022-07-29T21:50:11.390Z,99.00
2022-07-29T21:52:38.992Z,102.88
2022-07-29T21:55:07.532Z,108.43
2022-07-29T21:57:37.698Z,101.38
2022-07-29T22:00:06.780Z,108.88
2022-07-29T22:02:39.567Z,99.05
2022-07-29T22:05:06.814Z,106.22
2022-07-29T22:07:55.305Z,121.30
2022-07-29T22:10:21.235Z,110.10
2022-07-29T22:12:55.428Z,107.65
2022-07-29T22:15:23.396Z,99.50
2022-07-29T22:17:51.094Z,111.80
2022-07-29T22:20:18.346Z,134.18
2022-07-29T22:22:45.342Z,114.72
2022-07-29T22:25:12.537Z,121.30
2022-07-29T22:27:39.893Z,126.88
2022-07-29T22:30:08.337Z,122.47
2022-07-29T22:32:35.499Z,129.75
2022-07-29T22:35:02.749Z,133.23
2022-07-29T22:37:29.712Z,124.75
2022-07-29T22:39:56.757Z,130.88
2022-07-29T22:42:23.832Z,128.18
2022-07-29T22:44:50.947Z,139.93
2022-07-29T22:47:17.969Z,132.20
2022-07-29T22:50:05.980Z,118.15
2022-07-29T22:52:33.031Z,133.15
2022-07-29T22:55:00.263Z,147.82
2022-07-29T22:57:27.466Z,146.13
2022-07-29T22:59:54.484Z,154.60
2022-07-29T23:02:21.707Z,150.63
2022-07-29T23:04:48.674Z,133.18
2022-07-29T23:07:15.800Z,142.32
2022-07-29T23:09:42.991Z,144.65
2022-07-29T23:12:10.043Z,141.25
2022-07-29T23:14:36.990Z,143.43
2022-07-29T23:17:05.098Z,142.63
2022-07-29T23:19:32.548Z,138.05
2022-07-29T23:21:59.506Z,144.45
2022-07-29T23:24:26.718Z,138.27
2022-07-29T23:26:53.954Z,135.93
2022-07-29T23:29:21.254Z,151.65
2022-07-29T23:31:48.525Z,145.63
2022-07-29T23:34:15.722Z,138.45
2022-07-29T23:36:42.941Z,139.35
2022-07-29T23:39:13.525Z,144.52
2022-07-29T23:41:41.301Z,151.80
2022-07-29T23:44:08.535Z,148.35
2022-07-29T23:46:35.729Z,166.65
2022-07-29T23:49:03.051Z,156.20
2022-07-29T23:51:30.270Z,149.30
2022-07-29T23:53:57.648Z,150.05
2022-07-29T23:56:24.817Z,163.57
2022-07-29T23:58:52.029Z,161.45
